sensor_id;sensor_type;location;lat;lon;timestamp;temperature;humidity
58309;DHT22;44117;57.142;24.826;2022-10-22T00:00:16;3.90;99.90
58309;DHT22;44117;57.142;24.826;2022-10-22T00:02:43;3.90;99.90
58309;DHT22;44117;57.142;24.826;2022-10-22T00:05:11;3.90;99.90
58309;DHT22;44117;57.142;24.826;2022-10-22T00:07:38;4.00;99.90
58309;DHT22;44117;57.142;24.826;2022-10-22T00:10:07;4.00;99.90
58309;DHT22;44117;57.142;24.826;2022-10-22T00:12:34;3.90;99.90
58309;DHT22;44117;57.142;24.826;2022-10-22T00:15:03;3.90;99.90
58309;DHT22;44117;57.142;24.826;2022-10-22T00:17:31;3.90;99.90
58309;DHT22;44117;57.142;24.826;2022-10-22T00:19:58;3.90;99.90
58309;DHT22;44117;57.142;24.826;2022-10-22T00:22:26;3.90;99.90
58309;DHT22;44117;57.142;24.826;2022-10-22T00:24:53;3.90;99.90
58309;DHT22;44117;57.142;24.826;2022-10-22T00:27:20;3.90;99.90
58309;DHT22;44117;57.142;24.826;2022-10-22T00:29:47;3.90;99.90
58309;DHT22;44117;57.142;24.826;2022-10-22T00:32:14;3.90;99.90
58309;DHT22;44117;57.142;24.826;2022-10-22T00:34:42;3.90;99.90
58309;DHT22;44117;57.142;24.826;2022-10-22T00:37:09;3.90;99.90
58309;DHT22;44117;57.142;24.826;2022-10-22T00:39:36;3.80;99.90
58309;DHT22;44117;57.142;24.826;2022-10-22T00:42:04;3.80;99.90
58309;DHT22;44117;57.142;24.826;2022-10-22T00:45:00;3.80;99.90
58309;DHT22;44117;57.142;24.826;2022-10-22T00:47:35;3.80;99.90
58309;DHT22;44117;57.142;24.826;2022-10-22T00:50:06;3.80;99.90
58309;DHT22;44117;57.142;24.826;2022-10-22T00:52:35;3.80;99.90
58309;DHT22;44117;57.142;24.826;2022-10-22T00:55:03;3.70;99.90
58309;DHT22;44117;57.142;24.826;2022-10-22T00:57:31;3.70;99.90
58309;DHT22;44117;57.142;24.826;2022-10-22T00:59:59;3.60;99.90
58309;DHT22;44117;57.142;24.826;2022-10-22T01:02:27;3.60;99.90
58309;DHT22;44117;57.142;24.826;2022-10-22T01:04:54;3.60;99.90
58309;DHT22;44117;57.142;24.826;2022-10-22T01:07:23;3.50;99.90
58309;DHT22;44117;57.142;24.826;2022-10-22T01:15:47;3.50;99.90
58309;DHT22;44117;57.142;24.826;2022-10-22T01:18:37;3.50;99.90
58309;DHT22;44117;57.142;24.826;2022-10-22T01:21:29;3.50;99.90
58309;DHT22;44117;57.142;24.826;2022-10-22T01:27:54;3.40;99.90
58309;DHT22;44117;57.142;24.826;2022-10-22T01:30:08;3.40;99.90
58309;DHT22;44117;57.142;24.826;2022-10-22T01:32:45;3.40;99.90
58309;DHT22;44117;57.142;24.826;2022-10-22T01:35:17;3.30;99.90
58309;DHT22;44117;57.142;24.826;2022-10-22T01:37:48;3.30;99.90
58309;DHT22;44117;57.142;24.826;2022-10-22T01:40:18;3.30;99.90
58309;DHT22;44117;57.142;24.826;2022-10-22T01:42:57;3.30;99.90
58309;DHT22;44117;57.142;24.826;2022-10-22T01:45:25;3.30;99.90
58309;DHT22;44117;57.142;24.826;2022-10-22T01:48:08;3.30;99.90
58309;DHT22;44117;57.142;24.826;2022-10-22T01:53:42;3.30;99.90
58309;DHT22;44117;57.142;24.826;2022-10-22T02:04:32;3.30;99.90
58309;DHT22;44117;57.142;24.826;2022-10-22T02:07:04;3.20;99.90
58309;DHT22;44117;57.142;24.826;2022-10-22T02:09:33;3.20;99.90
58309;DHT22;44117;57.142;24.826;2022-10-22T02:12:03;3.20;99.90
58309;DHT22;44117;57.142;24.826;2022-10-22T02:14:38;3.30;99.90
58309;DHT22;44117;57.142;24.826;2022-10-22T02:17:12;3.30;99.90
58309;DHT22;44117;57.142;24.826;2022-10-22T02:22:22;3.30;99.90
58309;DHT22;44117;57.142;24.826;2022-10-22T02:24:49;3.30;99.90
58309;DHT22;44117;57.142;24.826;2022-10-22T02:27:35;3.30;99.90
58309;DHT22;44117;57.142;24.826;2022-10-22T02:30:06;3.40;99.90
58309;DHT22;44117;57.142;24.826;2022-10-22T02:32:38;3.40;99.90
58309;DHT22;44117;57.142;24.826;2022-10-22T02:35:10;3.40;99.90
58309;DHT22;44117;57.142;24.826;2022-10-22T02:37:39;3.50;99.90
58309;DHT22;44117;57.142;24.826;2022-10-22T02:40:07;3.50;99.90
58309;DHT22;44117;57.142;24.826;2022-10-22T02:42:35;3.50;99.90
58309;DHT22;44117;57.142;24.826;2022-10-22T02:45:04;3.50;99.90
58309;DHT22;44117;57.142;24.826;2022-10-22T02:47:32;3.40;99.90
58309;DHT22;44117;57.142;24.826;2022-10-22T02:49:59;3.40;99.90
58309;DHT22;44117;57.142;24.826;2022-10-22T02:52:26;3.50;99.90
58309;DHT22;44117;57.142;24.826;2022-10-22T02:54:53;3.40;99.90
58309;DHT22;44117;57.142;24.826;2022-10-22T02:57:21;3.40;99.90
58309;DHT22;44117;57.142;24.826;2022-10-22T02:59:48;3.50;99.90
58309;DHT22;44117;57.142;24.826;2022-10-22T03:02:15;3.50;99.90
58309;DHT22;44117;57.142;24.826;2022-10-22T03:04:43;3.50;99.90
58309;DHT22;44117;57.142;24.826;2022-10-22T03:07:10;3.50;99.90
58309;DHT22;44117;57.142;24.826;2022-10-22T03:09:37;3.50;99.90
58309;DHT22;44117;57.142;24.826;2022-10-22T03:12:05;3.50;99.90
58309;DHT22;44117;57.142;24.826;2022-10-22T03:14:32;3.50;99.90
58309;DHT22;44117;57.142;24.826;2022-10-22T03:16:59;3.50;99.90
58309;DHT22;44117;57.142;24.826;2022-10-22T03:19:26;3.40;99.90
58309;DHT22;44117;57.142;24.826;2022-10-22T03:21:58;3.30;99.90
58309;DHT22;44117;57.142;24.826;2022-10-22T03:24:30;3.40;99.90
58309;DHT22;44117;57.142;24.826;2022-10-22T03:27:00;3.40;99.90
58309;DHT22;44117;57.142;24.826;2022-10-22T03:29:27;3.40;99.90
58309;DHT22;44117;57.142;24.826;2022-10-22T03:31:54;3.40;99.90
58309;DHT22;44117;57.142;24.826;2022-10-22T03:34:22;3.40;99.90
58309;DHT22;44117;57.142;24.826;2022-10-22T03:36:50;3.40;99.90
58309;DHT22;44117;57.142;24.826;2022-10-22T03:39:19;3.40;99.90
58309;DHT22;44117;57.142;24.826;2022-10-22T03:41:47;3.40;99.90
58309;DHT22;44117;57.142;24.826;2022-10-22T03:44:16;3.40;99.90
58309;DHT22;44117;57.142;24.826;2022-10-22T03:46:44;3.30;99.90
58309;DHT22;44117;57.142;24.826;2022-10-22T03:49:11;3.30;99.90
58309;DHT22;44117;57.142;24.826;2022-10-22T03:51:38;3.20;99.90
58309;DHT22;44117;57.142;24.826;2022-10-22T03:54:06;3.20;99.90
58309;DHT22;44117;57.142;24.826;2022-10-22T03:56:33;3.20;99.90
58309;DHT22;44117;57.142;24.826;2022-10-22T03:59:01;3.20;99.90
58309;DHT22;44117;57.142;24.826;2022-10-22T04:01:29;3.10;99.90
58309;DHT22;44117;57.142;24.826;2022-10-22T04:03:57;3.10;99.90
58309;DHT22;44117;57.142;24.826;2022-10-22T04:06:24;3.10;99.90
58309;DHT22;44117;57.142;24.826;2022-10-22T04:08:52;3.10;99.90
58309;DHT22;44117;57.142;24.826;2022-10-22T04:11:19;3.10;99.90
58309;DHT22;44117;57.142;24.826;2022-10-22T04:13:46;3.10;99.90
58309;DHT22;44117;57.142;24.826;2022-10-22T04:16:19;3.10;99.90
58309;DHT22;44117;57.142;24.826;2022-10-22T04:18:48;3.10;99.90
58309;DHT22;44117;57.142;24.826;2022-10-22T04:21:18;3.10;99.90
58309;DHT22;44117;57.142;24.826;2022-10-22T04:23:50;3.00;99.90
58309;DHT22;44117;57.142;24.826;2022-10-22T04:26:18;3.00;99.90
58309;DHT22;44117;57.142;24.826;2022-10-22T04:28:46;3.00;99.90
58309;DHT22;44117;57.142;24.826;2022-10-22T04:31:16;2.90;99.90
58309;DHT22;44117;57.142;24.826;2022-10-22T04:33:43;2.90;99.90
58309;DHT22;44117;57.142;24.826;2022-10-22T04:36:16;2.90;99.90
58309;DHT22;44117;57.142;24.826;2022-10-22T04:38:45;2.90;99.90
58309;DHT22;44117;57.142;24.826;2022-10-22T04:41:15;2.90;99.90
58309;DHT22;44117;57.142;24.826;2022-10-22T04:43:43;2.90;99.90
58309;DHT22;44117;57.142;24.826;2022-10-22T04:46:11;2.90;99.90
58309;DHT22;44117;57.142;24.826;2022-10-22T04:48:40;2.90;99.90
58309;DHT22;44117;57.142;24.826;2022-10-22T04:51:11;2.90;99.90
58309;DHT22;44117;57.142;24.826;2022-10-22T04:53:39;2.90;99.90
58309;DHT22;44117;57.142;24.826;2022-10-22T04:58:51;2.90;99.90
58309;DHT22;44117;57.142;24.826;2022-10-22T05:01:22;2.90;99.90
58309;DHT22;44117;57.142;24.826;2022-10-22T05:03:50;2.90;99.90
58309;DHT22;44117;57.142;24.826;2022-10-22T05:06:18;2.90;99.90
58309;DHT22;44117;57.142;24.826;2022-10-22T05:08:47;2.90;99.90
58309;DHT22;44117;57.142;24.826;2022-10-22T05:11:25;2.90;99.90
58309;DHT22;44117;57.142;24.826;2022-10-22T05:13:57;2.90;99.90
58309;DHT22;44117;57.142;24.826;2022-10-22T05:16:27;2.90;99.90
58309;DHT22;44117;57.142;24.826;2022-10-22T05:18:57;2.90;99.90
58309;DHT22;44117;57.142;24.826;2022-10-22T05:21:25;2.80;99.90
58309;DHT22;44117;57.142;24.826;2022-10-22T05:23:53;2.90;99.90
58309;DHT22;44117;57.142;24.826;2022-10-22T05:26:22;2.80;99.90
58309;DHT22;44117;57.142;24.826;2022-10-22T05:28:50;2.80;99.90
58309;DHT22;44117;57.142;24.826;2022-10-22T05:31:18;2.80;99.90
58309;DHT22;44117;57.142;24.826;2022-10-22T05:33:46;2.80;99.90
58309;DHT22;44117;57.142;24.826;2022-10-22T05:36:16;2.90;99.90
58309;DHT22;44117;57.142;24.826;2022-10-22T05:38:43;2.90;99.90
58309;DHT22;44117;57.142;24.826;2022-10-22T05:41:19;2.90;99.90
58309;DHT22;44117;57.142;24.826;2022-10-22T05:43:46;2.90;99.90
58309;DHT22;44117;57.142;24.826;2022-10-22T05:46:19;3.00;99.90
58309;DHT22;44117;57.142;24.826;2022-10-22T05:48:56;3.00;99.90
58309;DHT22;44117;57.142;24.826;2022-10-22T05:51:26;3.00;99.90
58309;DHT22;44117;57.142;24.826;2022-10-22T05:53:56;3.10;99.90
58309;DHT22;44117;57.142;24.826;2022-10-22T05:56:24;3.10;99.90
58309;DHT22;44117;57.142;24.826;2022-10-22T05:58:52;3.10;99.90
58309;DHT22;44117;57.142;24.826;2022-10-22T06:01:22;3.20;99.90
58309;DHT22;44117;57.142;24.826;2022-10-22T06:03:53;3.20;99.90
58309;DHT22;44117;57.142;24.826;2022-10-22T06:07:03;3.30;99.90
58309;DHT22;44117;57.142;24.826;2022-10-22T06:09:26;3.40;99.90
58309;DHT22;44117;57.142;24.826;2022-10-22T06:11:56;3.40;99.90
58309;DHT22;44117;57.142;24.826;2022-10-22T06:14:23;3.50;99.90
58309;DHT22;44117;57.142;24.826;2022-10-22T06:16:51;3.60;99.90
58309;DHT22;44117;57.142;24.826;2022-10-22T06:19:20;3.60;99.90
58309;DHT22;44117;57.142;24.826;2022-10-22T06:21:47;3.70;99.90
58309;DHT22;44117;57.142;24.826;2022-10-22T06:24:15;3.80;99.90
58309;DHT22;44117;57.142;24.826;2022-10-22T06:26:42;3.80;99.90
58309;DHT22;44117;57.142;24.826;2022-10-22T06:29:09;3.90;99.90
58309;DHT22;44117;57.142;24.826;2022-10-22T06:31:36;3.90;99.90
58309;DHT22;44117;57.142;24.826;2022-10-22T06:34:10;4.00;99.90
58309;DHT22;44117;57.142;24.826;2022-10-22T06:36:38;4.10;99.90
58309;DHT22;44117;57.142;24.826;2022-10-22T06:39:12;4.20;99.90
58309;DHT22;44117;57.142;24.826;2022-10-22T06:41:39;4.20;99.90
58309;DHT22;44117;57.142;24.826;2022-10-22T06:44:13;4.30;99.90
58309;DHT22;44117;57.142;24.826;2022-10-22T06:46:42;4.40;99.90
58309;DHT22;44117;57.142;24.826;2022-10-22T06:49:12;4.50;99.90
58309;DHT22;44117;57.142;24.826;2022-10-22T06:51:40;4.50;99.90
58309;DHT22;44117;57.142;24.826;2022-10-22T06:54:08;4.60;99.90
58309;DHT22;44117;57.142;24.826;2022-10-22T06:56:35;4.70;99.90
58309;DHT22;44117;57.142;24.826;2022-10-22T06:59:03;4.80;99.90
58309;DHT22;44117;57.142;24.826;2022-10-22T07:01:32;4.80;99.90
58309;DHT22;44117;57.142;24.826;2022-10-22T07:04:00;4.90;99.90
58309;DHT22;44117;57.142;24.826;2022-10-22T07:06:28;5.00;99.90
58309;DHT22;44117;57.142;24.826;2022-10-22T07:08:57;5.00;99.90
58309;DHT22;44117;57.142;24.826;2022-10-22T07:11:30;5.00;99.90
58309;DHT22;44117;57.142;24.826;2022-10-22T07:13:58;5.10;99.90
58309;DHT22;44117;57.142;24.826;2022-10-22T07:16:26;5.20;99.90
58309;DHT22;44117;57.142;24.826;2022-10-22T07:19:01;5.30;99.90
58309;DHT22;44117;57.142;24.826;2022-10-22T07:21:30;5.40;99.90
58309;DHT22;44117;57.142;24.826;2022-10-22T07:23:57;5.50;99.90
58309;DHT22;44117;57.142;24.826;2022-10-22T07:26:27;5.50;99.90
58309;DHT22;44117;57.142;24.826;2022-10-22T07:28:58;5.60;99.90
58309;DHT22;44117;57.142;24.826;2022-10-22T07:31:25;5.70;99.90
58309;DHT22;44117;57.142;24.826;2022-10-22T07:33:52;5.80;99.90
58309;DHT22;44117;57.142;24.826;2022-10-22T07:36:20;5.80;99.90
58309;DHT22;44117;57.142;24.826;2022-10-22T07:38:52;5.90;99.90
58309;DHT22;44117;57.142;24.826;2022-10-22T07:41:19;6.00;99.90
58309;DHT22;44117;57.142;24.826;2022-10-22T07:43:46;6.00;99.90
58309;DHT22;44117;57.142;24.826;2022-10-22T07:46:13;6.10;99.90
58309;DHT22;44117;57.142;24.826;2022-10-22T07:48:40;6.20;99.90
58309;DHT22;44117;57.142;24.826;2022-10-22T07:51:08;6.30;99.90
58309;DHT22;44117;57.142;24.826;2022-10-22T07:53:35;6.40;99.90
58309;DHT22;44117;57.142;24.826;2022-10-22T07:56:03;6.40;99.90
58309;DHT22;44117;57.142;24.826;2022-10-22T07:58:30;6.40;99.90
58309;DHT22;44117;57.142;24.826;2022-10-22T08:00:59;6.50;99.90
58309;DHT22;44117;57.142;24.826;2022-10-22T08:03:31;6.50;99.90
58309;DHT22;44117;57.142;24.826;2022-10-22T08:05:59;6.50;99.90
58309;DHT22;44117;57.142;24.826;2022-10-22T08:08:26;6.60;99.90
58309;DHT22;44117;57.142;24.826;2022-10-22T08:10:59;6.70;99.90
58309;DHT22;44117;57.142;24.826;2022-10-22T08:13:26;6.80;99.90
58309;DHT22;44117;57.142;24.826;2022-10-22T08:16:00;6.90;99.90
58309;DHT22;44117;57.142;24.826;2022-10-22T08:18:28;7.00;99.90
58309;DHT22;44117;57.142;24.826;2022-10-22T08:20:55;7.10;99.90
58309;DHT22;44117;57.142;24.826;2022-10-22T08:23:23;7.20;99.90
58309;DHT22;44117;57.142;24.826;2022-10-22T08:25:55;7.40;99.90
58309;DHT22;44117;57.142;24.826;2022-10-22T08:28:22;7.60;99.90
58309;DHT22;44117;57.142;24.826;2022-10-22T08:30:50;7.60;99.90
58309;DHT22;44117;57.142;24.826;2022-10-22T08:33:17;7.60;99.90
58309;DHT22;44117;57.142;24.826;2022-10-22T08:35:49;7.70;99.90
58309;DHT22;44117;57.142;24.826;2022-10-22T08:38:17;7.70;99.90
58309;DHT22;44117;57.142;24.826;2022-10-22T08:40:49;7.80;99.90
58309;DHT22;44117;57.142;24.826;2022-10-22T08:48:43;8.00;99.90
58309;DHT22;44117;57.142;24.826;2022-10-22T08:51:17;8.10;99.90
58309;DHT22;44117;57.142;24.826;2022-10-22T08:56:22;8.50;99.90
58309;DHT22;44117;57.142;24.826;2022-10-22T08:58:54;8.70;99.90
58309;DHT22;44117;57.142;24.826;2022-10-22T09:01:37;8.90;99.90
58309;DHT22;44117;57.142;24.826;2022-10-22T09:06:45;9.20;99.90
58309;DHT22;44117;57.142;24.826;2022-10-22T09:09:18;9.30;99.90
58309;DHT22;44117;57.142;24.826;2022-10-22T09:11:48;9.60;99.90
58309;DHT22;44117;57.142;24.826;2022-10-22T09:14:20;9.90;99.90
58309;DHT22;44117;57.142;24.826;2022-10-22T09:22:33;9.90;99.90
58309;DHT22;44117;57.142;24.826;2022-10-22T09:25:23;10.30;99.90
58309;DHT22;44117;57.142;24.826;2022-10-22T09:27:52;10.60;99.90
58309;DHT22;44117;57.142;24.826;2022-10-22T09:30:29;10.60;99.90
58309;DHT22;44117;57.142;24.826;2022-10-22T09:35:43;11.20;99.90
58309;DHT22;44117;57.142;24.826;2022-10-22T09:38:14;11.70;99.50
58309;DHT22;44117;57.142;24.826;2022-10-22T09:40:49;11.50;99.00
58309;DHT22;44117;57.142;24.826;2022-10-22T09:43:18;12.00;99.20
58309;DHT22;44117;57.142;24.826;2022-10-22T09:45:46;11.90;98.50
58309;DHT22;44117;57.142;24.826;2022-10-22T09:50:47;11.80;98.20
58309;DHT22;44117;57.142;24.826;2022-10-22T09:55:50;12.30;96.90
58309;DHT22;44117;57.142;24.826;2022-10-22T09:58:18;12.40;97.70
58309;DHT22;44117;57.142;24.826;2022-10-22T10:00:55;12.40;96.70
58309;DHT22;44117;57.142;24.826;2022-10-22T10:03:25;12.60;96.10
58309;DHT22;44117;57.142;24.826;2022-10-22T10:05:56;13.00;96.30
58309;DHT22;44117;57.142;24.826;2022-10-22T10:08:30;13.10;95.50
58309;DHT22;44117;57.142;24.826;2022-10-22T10:30:17;12.60;93.80
58309;DHT22;44117;57.142;24.826;2022-10-22T10:49:41;14.00;91.90
58309;DHT22;44117;57.142;24.826;2022-10-22T10:54:51;13.70;91.80
58309;DHT22;44117;57.142;24.826;2022-10-22T11:00:13;14.60;92.40
58309;DHT22;44117;57.142;24.826;2022-10-22T11:05:44;14.70;90.00
58309;DHT22;44117;57.142;24.826;2022-10-22T11:08:27;14.30;90.20
58309;DHT22;44117;57.142;24.826;2022-10-22T11:11:09;14.40;90.20
58309;DHT22;44117;57.142;24.826;2022-10-22T11:16:52;14.30;89.80
58309;DHT22;44117;57.142;24.826;2022-10-22T11:20:12;14.60;90.00
58309;DHT22;44117;57.142;24.826;2022-10-22T11:22:50;14.40;90.00
58309;DHT22;44117;57.142;24.826;2022-10-22T11:25:44;14.20;89.00
58309;DHT22;44117;57.142;24.826;2022-10-22T11:28:28;14.20;89.70
58309;DHT22;44117;57.142;24.826;2022-10-22T11:31:04;14.50;88.90
58309;DHT22;44117;57.142;24.826;2022-10-22T11:34:19;14.80;90.10
58309;DHT22;44117;57.142;24.826;2022-10-22T11:37:00;14.90;88.30
58309;DHT22;44117;57.142;24.826;2022-10-22T11:42:05;16.10;87.30
58309;DHT22;44117;57.142;24.826;2022-10-22T11:44:49;16.60;86.90
58309;DHT22;44117;57.142;24.826;2022-10-22T11:47:27;16.40;83.90
58309;DHT22;44117;57.142;24.826;2022-10-22T11:50:15;15.70;85.30
58309;DHT22;44117;57.142;24.826;2022-10-22T11:55:48;16.70;85.40
58309;DHT22;44117;57.142;24.826;2022-10-22T11:58:39;16.90;84.50
58309;DHT22;44117;57.142;24.826;2022-10-22T12:03:43;16.50;82.50
58309;DHT22;44117;57.142;24.826;2022-10-22T12:08:56;15.60;84.30
58309;DHT22;44117;57.142;24.826;2022-10-22T12:11:28;15.80;84.60
58309;DHT22;44117;57.142;24.826;2022-10-22T12:14:26;15.80;85.10
58309;DHT22;44117;57.142;24.826;2022-10-22T12:19:31;14.20;87.70
58309;DHT22;44117;57.142;24.826;2022-10-22T12:22:17;14.00;88.20
58309;DHT22;44117;57.142;24.826;2022-10-22T12:24:52;14.30;88.40
58309;DHT22;44117;57.142;24.826;2022-10-22T12:27:23;13.80;89.20
58309;DHT22;44117;57.142;24.826;2022-10-22T12:29:57;13.90;89.80
58309;DHT22;44117;57.142;24.826;2022-10-22T12:32:36;14.30;89.20
58309;DHT22;44117;57.142;24.826;2022-10-22T12:35:06;14.70;89.30
58309;DHT22;44117;57.142;24.826;2022-10-22T12:37:35;14.50;87.90
58309;DHT22;44117;57.142;24.826;2022-10-22T12:40:17;14.10;88.60
58309;DHT22;44117;57.142;24.826;2022-10-22T12:42:52;13.70;90.10
58309;DHT22;44117;57.142;24.826;2022-10-22T12:45:21;13.40;90.40
58309;DHT22;44117;57.142;24.826;2022-10-22T12:47:51;13.10;91.00
58309;DHT22;44117;57.142;24.826;2022-10-22T12:50:35;13.50;90.80
58309;DHT22;44117;57.142;24.826;2022-10-22T12:53:17;14.00;90.20
58309;DHT22;44117;57.142;24.826;2022-10-22T12:55:47;14.70;88.50
58309;DHT22;44117;57.142;24.826;2022-10-22T12:58:19;15.90;87.20
58309;DHT22;44117;57.142;24.826;2022-10-22T13:00:47;17.30;83.30
58309;DHT22;44117;57.142;24.826;2022-10-22T13:03:34;18.10;80.70
58309;DHT22;44117;57.142;24.826;2022-10-22T13:11:38;16.80;81.00
58309;DHT22;44117;57.142;24.826;2022-10-22T13:14:27;17.20;81.30
58309;DHT22;44117;57.142;24.826;2022-10-22T13:17:14;16.60;82.30
58309;DHT22;44117;57.142;24.826;2022-10-22T13:22:38;15.40;85.00
58309;DHT22;44117;57.142;24.826;2022-10-22T13:27:44;14.90;86.20
58309;DHT22;44117;57.142;24.826;2022-10-22T13:30:29;14.20;86.80
58309;DHT22;44117;57.142;24.826;2022-10-22T13:35:35;14.10;88.40
58309;DHT22;44117;57.142;24.826;2022-10-22T13:38:13;14.40;87.30
58309;DHT22;44117;57.142;24.826;2022-10-22T13:40:42;14.10;86.90
58309;DHT22;44117;57.142;24.826;2022-10-22T13:43:09;13.80;86.90
58309;DHT22;44117;57.142;24.826;2022-10-22T13:45:36;13.30;88.50
58309;DHT22;44117;57.142;24.826;2022-10-22T13:48:04;13.10;90.00
58309;DHT22;44117;57.142;24.826;2022-10-22T13:50:31;13.00;90.20
58309;DHT22;44117;57.142;24.826;2022-10-22T13:52:58;12.90;90.50
58309;DHT22;44117;57.142;24.826;2022-10-22T13:55:29;12.70;90.50
58309;DHT22;44117;57.142;24.826;2022-10-22T13:58:05;12.40;91.00
58309;DHT22;44117;57.142;24.826;2022-10-22T14:00:33;12.10;91.30
58309;DHT22;44117;57.142;24.826;2022-10-22T14:03:00;12.00;91.70
58309;DHT22;44117;57.142;24.826;2022-10-22T14:05:27;11.90;91.80
58309;DHT22;44117;57.142;24.826;2022-10-22T14:07:58;11.70;92.30
58309;DHT22;44117;57.142;24.826;2022-10-22T14:10:26;11.50;92.70
58309;DHT22;44117;57.142;24.826;2022-10-22T14:12:53;11.30;92.90
58309;DHT22;44117;57.142;24.826;2022-10-22T14:15:22;11.20;93.20
58309;DHT22;44117;57.142;24.826;2022-10-22T14:17:55;11.20;93.50
58309;DHT22;44117;57.142;24.826;2022-10-22T14:20:35;11.00;93.60
58309;DHT22;44117;57.142;24.826;2022-10-22T14:23:15;11.00;94.00
58309;DHT22;44117;57.142;24.826;2022-10-22T14:25:45;10.90;94.30
58309;DHT22;44117;57.142;24.826;2022-10-22T14:28:13;10.70;94.50
58309;DHT22;44117;57.142;24.826;2022-10-22T14:30:40;10.60;94.80
58309;DHT22;44117;57.142;24.826;2022-10-22T14:33:19;10.50;95.00
58309;DHT22;44117;57.142;24.826;2022-10-22T14:35:47;10.40;95.40
58309;DHT22;44117;57.142;24.826;2022-10-22T14:38:15;10.20;95.70
58309;DHT22;44117;57.142;24.826;2022-10-22T14:40:44;10.20;96.10
58309;DHT22;44117;57.142;24.826;2022-10-22T14:43:23;10.10;96.30
58309;DHT22;44117;57.142;24.826;2022-10-22T14:45:51;9.90;96.60
58309;DHT22;44117;57.142;24.826;2022-10-22T14:48:19;9.80;97.10
58309;DHT22;44117;57.142;24.826;2022-10-22T14:50:46;9.70;97.60
58309;DHT22;44117;57.142;24.826;2022-10-22T14:53:14;9.60;98.00
58309;DHT22;44117;57.142;24.826;2022-10-22T14:55:43;9.40;98.50
58309;DHT22;44117;57.142;24.826;2022-10-22T14:58:13;9.30;98.80
58309;DHT22;44117;57.142;24.826;2022-10-22T15:00:41;9.20;99.30
58309;DHT22;44117;57.142;24.826;2022-10-22T15:03:09;9.10;99.70
58309;DHT22;44117;57.142;24.826;2022-10-22T15:05:44;9.00;99.90
58309;DHT22;44117;57.142;24.826;2022-10-22T15:08:14;8.90;99.90
58309;DHT22;44117;57.142;24.826;2022-10-22T15:10:41;8.80;99.90
58309;DHT22;44117;57.142;24.826;2022-10-22T15:13:08;8.70;99.90
58309;DHT22;44117;57.142;24.826;2022-10-22T15:15:39;8.60;99.90
58309;DHT22;44117;57.142;24.826;2022-10-22T15:18:07;8.50;99.90
58309;DHT22;44117;57.142;24.826;2022-10-22T15:20:34;8.50;99.90
58309;DHT22;44117;57.142;24.826;2022-10-22T15:23:01;8.50;99.90
58309;DHT22;44117;57.142;24.826;2022-10-22T15:25:29;8.50;99.90
58309;DHT22;44117;57.142;24.826;2022-10-22T15:27:56;8.50;99.90
58309;DHT22;44117;57.142;24.826;2022-10-22T15:30:30;8.30;99.90
58309;DHT22;44117;57.142;24.826;2022-10-22T15:32:57;8.30;99.90
58309;DHT22;44117;57.142;24.826;2022-10-22T15:35:26;8.20;99.90
58309;DHT22;44117;57.142;24.826;2022-10-22T15:37:54;8.20;99.90
58309;DHT22;44117;57.142;24.826;2022-10-22T15:40:21;8.10;99.90
58309;DHT22;44117;57.142;24.826;2022-10-22T15:42:49;8.10;99.90
58309;DHT22;44117;57.142;24.826;2022-10-22T15:45:16;8.10;99.90
58309;DHT22;44117;57.142;24.826;2022-10-22T15:47:47;8.10;99.90
58309;DHT22;44117;57.142;24.826;2022-10-22T15:50:15;8.00;99.90
58309;DHT22;44117;57.142;24.826;2022-10-22T15:52:42;8.00;99.90
58309;DHT22;44117;57.142;24.826;2022-10-22T15:55:10;8.00;99.90
58309;DHT22;44117;57.142;24.826;2022-10-22T15:57:42;7.90;99.90
58309;DHT22;44117;57.142;24.826;2022-10-22T16:00:11;7.90;99.90
58309;DHT22;44117;57.142;24.826;2022-10-22T16:02:39;7.90;99.90
58309;DHT22;44117;57.142;24.826;2022-10-22T16:05:06;7.80;99.90
58309;DHT22;44117;57.142;24.826;2022-10-22T16:07:34;7.80;99.90
58309;DHT22;44117;57.142;24.826;2022-10-22T16:10:01;7.80;99.90
58309;DHT22;44117;57.142;24.826;2022-10-22T16:12:28;7.80;99.90
58309;DHT22;44117;57.142;24.826;2022-10-22T16:14:56;7.80;99.90
58309;DHT22;44117;57.142;24.826;2022-10-22T16:17:23;7.80;99.90
58309;DHT22;44117;57.142;24.826;2022-10-22T16:19:50;7.80;99.90
58309;DHT22;44117;57.142;24.826;2022-10-22T16:22:18;7.70;99.90
58309;DHT22;44117;57.142;24.826;2022-10-22T16:24:45;7.70;99.90
58309;DHT22;44117;57.142;24.826;2022-10-22T16:27:12;7.70;99.90
58309;DHT22;44117;57.142;24.826;2022-10-22T16:29:39;7.60;99.90
58309;DHT22;44117;57.142;24.826;2022-10-22T16:32:07;7.60;99.90
58309;DHT22;44117;57.142;24.826;2022-10-22T16:34:35;7.60;99.90
58309;DHT22;44117;57.142;24.826;2022-10-22T16:37:02;7.60;99.90
58309;DHT22;44117;57.142;24.826;2022-10-22T16:39:36;7.50;99.90
58309;DHT22;44117;57.142;24.826;2022-10-22T16:42:04;7.50;99.90
58309;DHT22;44117;57.142;24.826;2022-10-22T16:44:31;7.40;99.90
58309;DHT22;44117;57.142;24.826;2022-10-22T16:46:58;7.40;99.90
58309;DHT22;44117;57.142;24.826;2022-10-22T16:49:26;7.40;99.90
58309;DHT22;44117;57.142;24.826;2022-10-22T16:51:54;7.30;99.90
58309;DHT22;44117;57.142;24.826;2022-10-22T16:54:21;7.30;99.90
58309;DHT22;44117;57.142;24.826;2022-10-22T16:56:48;7.30;99.90
58309;DHT22;44117;57.142;24.826;2022-10-22T16:59:15;7.20;99.90
58309;DHT22;44117;57.142;24.826;2022-10-22T17:01:42;7.20;99.90
58309;DHT22;44117;57.142;24.826;2022-10-22T17:04:09;7.20;99.90
58309;DHT22;44117;57.142;24.826;2022-10-22T17:06:37;7.30;99.90
58309;DHT22;44117;57.142;24.826;2022-10-22T17:09:04;7.30;99.90
58309;DHT22;44117;57.142;24.826;2022-10-22T17:11:32;7.30;99.90
58309;DHT22;44117;57.142;24.826;2022-10-22T17:14:03;7.30;99.90
58309;DHT22;44117;57.142;24.826;2022-10-22T17:16:30;7.30;99.90
58309;DHT22;44117;57.142;24.826;2022-10-22T17:18:57;7.30;99.90
58309;DHT22;44117;57.142;24.826;2022-10-22T17:21:25;7.30;99.90
58309;DHT22;44117;57.142;24.826;2022-10-22T17:23:55;7.30;99.90
58309;DHT22;44117;57.142;24.826;2022-10-22T17:26:24;7.30;99.90
58309;DHT22;44117;57.142;24.826;2022-10-22T17:28:53;7.30;99.90
58309;DHT22;44117;57.142;24.826;2022-10-22T17:31:22;7.20;99.90
58309;DHT22;44117;57.142;24.826;2022-10-22T17:33:51;7.20;99.90
58309;DHT22;44117;57.142;24.826;2022-10-22T17:36:19;7.20;99.90
58309;DHT22;44117;57.142;24.826;2022-10-22T17:38:53;7.20;99.90
58309;DHT22;44117;57.142;24.826;2022-10-22T17:41:23;7.20;99.90
58309;DHT22;44117;57.142;24.826;2022-10-22T17:43:50;7.20;99.90
58309;DHT22;44117;57.142;24.826;2022-10-22T17:46:20;7.20;99.90
58309;DHT22;44117;57.142;24.826;2022-10-22T17:48:50;7.20;99.90
58309;DHT22;44117;57.142;24.826;2022-10-22T17:51:19;7.10;99.90
58309;DHT22;44117;57.142;24.826;2022-10-22T17:53:46;7.20;99.90